ETD395 VCBI-OMAA
Flight info
| Callsign | ETD395 |
|---|---|
| Flight time | N/A |
| Altitude | 32000 |
| Route | DEMON1D DEMON R461 MDI M300 EMURU N563 NOBTO |
| Aircraft | A321/M-SDE3FGHIRWY/LB1 |
Departure
| Time | 2026-05-08 14:28 |
|---|---|
| Airport | Bandaranaike International Colombo Airport (VCBI) |
Arrival
| Time | N/A |
|---|---|
| Airport | Zayed International Airport (OMAA) |
| Time | Latitude | Longitude | Altitude | Speed | Heading |
|---|---|---|---|---|---|
| 2026-05-08 13:51 | 7.17655 | 79.88535 | 36 ft | 0 kts | 217° |
| 2026-05-08 14:17 | 7.17664 | 79.88542 | 36 ft | 2 kts | 217° |
| 2026-05-08 14:17 | 7.17676 | 79.88551 | 36 ft | 2 kts | 217° |
| 2026-05-08 14:18 | 7.17688 | 79.88560 | 36 ft | 2 kts | 217° |
| 2026-05-08 14:18 | 7.17700 | 79.88570 | 36 ft | 2 kts | 217° |
| 2026-05-08 14:18 | 7.17712 | 79.88579 | 36 ft | 1 kts | 224° |
| 2026-05-08 14:18 | 7.17720 | 79.88590 | 36 ft | 2 kts | 247° |
| 2026-05-08 14:19 | 7.17724 | 79.88604 | 36 ft | 1 kts | 265° |
| 2026-05-08 14:19 | 7.17723 | 79.88618 | 36 ft | 2 kts | 284° |
| 2026-05-08 14:19 | 7.17718 | 79.88631 | 36 ft | 1 kts | 303° |
| 2026-05-08 14:19 | 7.17714 | 79.88636 | 36 ft | 1 kts | 307° |
| 2026-05-08 14:20 | 7.17713 | 79.88638 | 36 ft | 0 kts | 307° |
| 2026-05-08 14:21 | 7.17713 | 79.88637 | 36 ft | 0 kts | 307° |
| 2026-05-08 14:21 | 7.17722 | 79.88625 | 36 ft | 6 kts | 308° |
| 2026-05-08 14:21 | 7.17760 | 79.88576 | 36 ft | 9 kts | 307° |
| 2026-05-08 14:22 | 7.17802 | 79.88520 | 36 ft | 10 kts | 307° |
| 2026-05-08 14:22 | 7.17846 | 79.88462 | 36 ft | 10 kts | 308° |
| 2026-05-08 14:22 | 7.17913 | 79.88453 | 36 ft | 10 kts | 32° |
| 2026-05-08 14:22 | 7.17978 | 79.88501 | 36 ft | 14 kts | 37° |
| 2026-05-08 14:23 | 7.18065 | 79.88569 | 36 ft | 16 kts | 38° |
| 2026-05-08 14:23 | 7.18153 | 79.88638 | 36 ft | 15 kts | 38° |
| 2026-05-08 14:23 | 7.18239 | 79.88705 | 36 ft | 15 kts | 38° |
| 2026-05-08 14:23 | 7.18324 | 79.88770 | 36 ft | 15 kts | 37° |
| 2026-05-08 14:24 | 7.18408 | 79.88835 | 36 ft | 15 kts | 37° |
| 2026-05-08 14:24 | 7.18491 | 79.88900 | 36 ft | 15 kts | 37° |
| 2026-05-08 14:24 | 7.18574 | 79.88964 | 36 ft | 14 kts | 37° |
| 2026-05-08 14:24 | 7.18656 | 79.89027 | 35 ft | 14 kts | 37° |
| 2026-05-08 14:25 | 7.18738 | 79.89090 | 36 ft | 14 kts | 37° |
| 2026-05-08 14:25 | 7.18819 | 79.89153 | 36 ft | 14 kts | 38° |
| 2026-05-08 14:25 | 7.18872 | 79.89196 | 36 ft | 14 kts | 38° |
| 2026-05-08 14:25 | 7.18978 | 79.89278 | 36 ft | 14 kts | 37° |
| 2026-05-08 14:26 | 7.19058 | 79.89339 | 36 ft | 14 kts | 38° |
| 2026-05-08 14:26 | 7.19138 | 79.89401 | 36 ft | 14 kts | 38° |
| 2026-05-08 14:26 | 7.19213 | 79.89420 | 36 ft | 9 kts | 323° |
| 2026-05-08 14:26 | 7.19256 | 79.89367 | 36 ft | 10 kts | 307° |
| 2026-05-08 14:27 | 7.19286 | 79.89304 | 36 ft | 10 kts | 260° |
| 2026-05-08 14:27 | 7.19259 | 79.89269 | 36 ft | 0 kts | 218° |
| 2026-05-08 14:27 | 7.19252 | 79.89262 | 36 ft | 7 kts | 218° |
| 2026-05-08 14:27 | 7.19023 | 79.89084 | 36 ft | 82 kts | 218° |
| 2026-05-08 14:28 | 7.18377 | 79.88582 | 36 ft | 152 kts | 218° |
| 2026-05-08 14:28 | 7.17437 | 79.87837 | 389 ft | 179 kts | 219° |
| 2026-05-08 14:28 | 7.16528 | 79.87060 | 1327 ft | 170 kts | 227° |
| 2026-05-08 14:28 | 7.16117 | 79.86033 | 2073 ft | 158 kts | 272° |
| 2026-05-08 14:29 | 7.16343 | 79.84928 | 2359 ft | 166 kts | 287° |
| 2026-05-08 14:29 | 7.16686 | 79.83785 | 2626 ft | 176 kts | 286° |
| 2026-05-08 14:29 | 7.17009 | 79.82549 | 2902 ft | 188 kts | 284° |
| 2026-05-08 14:29 | 7.17387 | 79.81245 | 3242 ft | 198 kts | 298° |
| 2026-05-08 14:30 | 7.18318 | 79.80190 | 3496 ft | 209 kts | 330° |
| 2026-05-08 14:30 | 7.19729 | 79.79755 | 3775 ft | 221 kts | 359° |
| 2026-05-08 14:30 | 7.21277 | 79.80156 | 3878 ft | 244 kts | 33° |
| 2026-05-08 14:30 | 7.22631 | 79.81272 | 4229 ft | 259 kts | 39° |
| 2026-05-08 14:31 | 7.24090 | 79.82434 | 4685 ft | 270 kts | 37° |
| 2026-05-08 14:31 | 7.25586 | 79.83565 | 5387 ft | 270 kts | 37° |
| 2026-05-08 14:31 | 7.27097 | 79.84712 | 6089 ft | 271 kts | 37° |
| 2026-05-08 14:32 | 7.30142 | 79.87039 | 7319 ft | 277 kts | 38° |
| 2026-05-08 14:32 | 7.31161 | 79.87821 | 7736 ft | 279 kts | 38° |
| 2026-05-08 14:32 | 7.33242 | 79.89426 | 8541 ft | 283 kts | 38° |
| 2026-05-08 14:32 | 7.34846 | 79.90605 | 9156 ft | 285 kts | 30° |
| 2026-05-08 14:33 | 7.36693 | 79.91317 | 9719 ft | 288 kts | 11° |
| 2026-05-08 14:33 | 7.38710 | 79.91486 | 10245 ft | 293 kts | 2° |
| 2026-05-08 14:33 | 7.40789 | 79.91521 | 10525 ft | 306 kts | 1° |
| 2026-05-08 14:33 | 7.42990 | 79.91547 | 10782 ft | 320 kts | 1° |
| 2026-05-08 14:34 | 7.45264 | 79.91297 | 11017 ft | 335 kts | 346° |
| 2026-05-08 14:34 | 7.47460 | 79.90376 | 11250 ft | 350 kts | 330° |
| 2026-05-08 14:34 | 7.49525 | 79.89020 | 11493 ft | 362 kts | 326° |
| 2026-05-08 14:34 | 7.51639 | 79.87537 | 11766 ft | 373 kts | 326° |
| 2026-05-08 14:35 | 7.53794 | 79.86028 | 12204 ft | 379 kts | 326° |
| 2026-05-08 14:35 | 7.55978 | 79.84521 | 12723 ft | 381 kts | 326° |
| 2026-05-08 14:35 | 7.58185 | 79.83001 | 13279 ft | 383 kts | 325° |
| 2026-05-08 14:35 | 7.60324 | 79.81376 | 13799 ft | 385 kts | 321° |
| 2026-05-08 14:36 | 7.62378 | 79.79597 | 14320 ft | 387 kts | 318° |
| 2026-05-08 14:36 | 7.64402 | 79.77744 | 14764 ft | 391 kts | 317° |
| 2026-05-08 14:36 | 7.66420 | 79.75881 | 15256 ft | 393 kts | 317° |
| 2026-05-08 14:36 | 7.68447 | 79.74009 | 15732 ft | 396 kts | 317° |
| 2026-05-08 14:37 | 7.70482 | 79.72132 | 16203 ft | 398 kts | 317° |
| 2026-05-08 14:37 | 7.72521 | 79.70254 | 16654 ft | 400 kts | 317° |
| 2026-05-08 14:37 | 7.74621 | 79.68321 | 17094 ft | 403 kts | 317° |
| 2026-05-08 14:37 | 7.76694 | 79.66413 | 17523 ft | 406 kts | 317° |
| 2026-05-08 14:38 | 7.78815 | 79.64462 | 17941 ft | 408 kts | 317° |
| 2026-05-08 14:38 | 7.80917 | 79.62527 | 18353 ft | 411 kts | 317° |
| 2026-05-08 14:38 | 7.83044 | 79.60568 | 18751 ft | 413 kts | 317° |
| 2026-05-08 14:38 | 7.85165 | 79.58616 | 19147 ft | 416 kts | 317° |
| 2026-05-08 14:39 | 7.87325 | 79.56627 | 19538 ft | 418 kts | 317° |
| 2026-05-08 14:39 | 7.89472 | 79.54655 | 19917 ft | 420 kts | 317° |
| 2026-05-08 14:39 | 7.91673 | 79.52649 | 20297 ft | 423 kts | 317° |
| 2026-05-08 14:39 | 7.93853 | 79.50663 | 20660 ft | 425 kts | 317° |
| 2026-05-08 14:40 | 7.96077 | 79.48637 | 21025 ft | 427 kts | 317° |
| 2026-05-08 14:40 | 7.98269 | 79.46638 | 21391 ft | 428 kts | 317° |
| 2026-05-08 14:40 | 8.00493 | 79.44609 | 21739 ft | 430 kts | 317° |
| 2026-05-08 14:40 | 8.02746 | 79.42553 | 22078 ft | 432 kts | 317° |
| 2026-05-08 14:41 | 8.04979 | 79.40514 | 22406 ft | 434 kts | 317° |
| 2026-05-08 14:41 | 8.07223 | 79.38464 | 22724 ft | 436 kts | 317° |
| 2026-05-08 14:41 | 8.09512 | 79.36374 | 23040 ft | 438 kts | 317° |
| 2026-05-08 14:41 | 8.11752 | 79.34331 | 23339 ft | 440 kts | 317° |
| 2026-05-08 14:42 | 8.14043 | 79.32239 | 23637 ft | 442 kts | 317° |
| 2026-05-08 14:42 | 8.16325 | 79.30150 | 23925 ft | 444 kts | 317° |
| 2026-05-08 14:42 | 8.18613 | 79.28056 | 24202 ft | 446 kts | 317° |
| 2026-05-08 14:42 | 8.20939 | 79.25927 | 24478 ft | 447 kts | 317° |
| 2026-05-08 14:43 | 8.23242 | 79.23819 | 24746 ft | 449 kts | 317° |
| 2026-05-08 14:43 | 8.25552 | 79.21706 | 25007 ft | 451 kts | 317° |
| 2026-05-08 14:43 | 8.27904 | 79.19553 | 25267 ft | 453 kts | 317° |
| 2026-05-08 14:43 | 8.30250 | 79.17407 | 25520 ft | 454 kts | 317° |
| 2026-05-08 14:44 | 8.32590 | 79.15266 | 25761 ft | 456 kts | 317° |
| 2026-05-08 14:44 | 8.34937 | 79.13117 | 25997 ft | 458 kts | 317° |
| 2026-05-08 14:44 | 8.37300 | 79.10954 | 26240 ft | 459 kts | 317° |
| 2026-05-08 14:44 | 8.39686 | 79.08770 | 26471 ft | 461 kts | 317° |
| 2026-05-08 14:45 | 8.42071 | 79.06585 | 26677 ft | 463 kts | 317° |
| 2026-05-08 14:45 | 8.44454 | 79.04402 | 26892 ft | 465 kts | 317° |
| 2026-05-08 14:45 | 8.46884 | 79.02176 | 27117 ft | 466 kts | 317° |
| 2026-05-08 14:45 | 8.49289 | 78.99972 | 27401 ft | 466 kts | 318° |
| 2026-05-08 14:46 | 8.51687 | 78.97774 | 27735 ft | 464 kts | 318° |
| 2026-05-08 14:46 | 8.54102 | 78.95619 | 28067 ft | 462 kts | 320° |
| 2026-05-08 14:46 | 8.56616 | 78.93592 | 28360 ft | 462 kts | 323° |
| 2026-05-08 14:46 | 8.59234 | 78.91708 | 28616 ft | 462 kts | 326° |
| 2026-05-08 14:47 | 8.61926 | 78.89902 | 28890 ft | 461 kts | 327° |
| 2026-05-08 14:47 | 8.64602 | 78.88127 | 29170 ft | 460 kts | 327° |
| 2026-05-08 14:47 | 8.67311 | 78.86334 | 29438 ft | 460 kts | 327° |
| 2026-05-08 14:47 | 8.70004 | 78.84549 | 29700 ft | 459 kts | 327° |
| 2026-05-08 14:48 | 8.72656 | 78.82788 | 29957 ft | 458 kts | 327° |
| 2026-05-08 14:48 | 8.75318 | 78.81019 | 30189 ft | 458 kts | 327° |
| 2026-05-08 14:48 | 8.77972 | 78.79253 | 30377 ft | 459 kts | 327° |
| 2026-05-08 14:48 | 8.80675 | 78.77454 | 30538 ft | 461 kts | 327° |
| 2026-05-08 14:49 | 8.83328 | 78.75688 | 30717 ft | 461 kts | 327° |
| 2026-05-08 14:49 | 8.86011 | 78.73902 | 30918 ft | 462 kts | 327° |
| 2026-05-08 14:49 | 8.88692 | 78.72115 | 31089 ft | 463 kts | 327° |
| 2026-05-08 14:49 | 8.91388 | 78.70319 | 31256 ft | 463 kts | 327° |
| 2026-05-08 14:50 | 8.94097 | 78.68514 | 31416 ft | 464 kts | 327° |
| 2026-05-08 14:50 | 8.96768 | 78.66734 | 31567 ft | 465 kts | 327° |
| 2026-05-08 14:50 | 8.99476 | 78.64929 | 31730 ft | 466 kts | 327° |
| 2026-05-08 14:50 | 9.02184 | 78.63123 | 31822 ft | 468 kts | 327° |
| 2026-05-08 14:51 | 9.07620 | 78.59498 | 31839 ft | 468 kts | 327° |
| 2026-05-08 14:51 | 9.13058 | 78.55878 | 31849 ft | 467 kts | 327° |
| 2026-05-08 14:52 | 9.21205 | 78.50463 | 31859 ft | 467 kts | 327° |
| 2026-05-08 14:53 | 9.25723 | 78.47450 | 31861 ft | 467 kts | 327° |
| 2026-05-08 14:53 | 9.32061 | 78.43217 | 31863 ft | 467 kts | 327° |
| 2026-05-08 14:54 | 9.37480 | 78.39595 | 31863 ft | 466 kts | 327° |
| 2026-05-08 14:54 | 9.42891 | 78.35976 | 31863 ft | 466 kts | 327° |
| 2026-05-08 14:55 | 9.48313 | 78.32333 | 31863 ft | 466 kts | 326° |
| 2026-05-08 14:55 | 9.53685 | 78.28715 | 31863 ft | 466 kts | 326° |
| 2026-05-08 14:56 | 9.59075 | 78.25101 | 31863 ft | 466 kts | 327° |
| 2026-05-08 14:56 | 9.64419 | 78.21523 | 31863 ft | 465 kts | 327° |
| 2026-05-08 14:57 | 9.69808 | 78.17915 | 31863 ft | 464 kts | 327° |
| 2026-05-08 14:57 | 9.75183 | 78.14301 | 31861 ft | 464 kts | 325° |
| 2026-05-08 14:58 | 9.80255 | 78.10239 | 31861 ft | 464 kts | 317° |
| 2026-05-08 14:58 | 9.84710 | 78.05547 | 31861 ft | 464 kts | 309° |
| 2026-05-08 14:59 | 9.88527 | 78.00241 | 31861 ft | 464 kts | 302° |
| 2026-05-08 14:59 | 9.93674 | 77.91859 | 31861 ft | 464 kts | 302° |
| 2026-05-08 15:00 | 9.97056 | 77.86338 | 31857 ft | 465 kts | 302° |
| 2026-05-08 15:00 | 10.00507 | 77.80720 | 31851 ft | 465 kts | 302° |
| 2026-05-08 15:01 | 10.03933 | 77.75146 | 31845 ft | 465 kts | 302° |
| 2026-05-08 15:01 | 10.07361 | 77.69569 | 31840 ft | 465 kts | 302° |
| 2026-05-08 15:02 | 10.10775 | 77.64015 | 31837 ft | 465 kts | 302° |
| 2026-05-08 15:02 | 10.14218 | 77.58459 | 31840 ft | 465 kts | 302° |
| 2026-05-08 15:03 | 10.17661 | 77.52880 | 31844 ft | 465 kts | 302° |
| 2026-05-08 15:03 | 10.21099 | 77.47285 | 31850 ft | 465 kts | 302° |
| 2026-05-08 15:04 | 10.24520 | 77.41710 | 31855 ft | 465 kts | 302° |
| 2026-05-08 15:04 | 10.27941 | 77.36130 | 31860 ft | 465 kts | 302° |
| 2026-05-08 15:05 | 10.31342 | 77.30558 | 31862 ft | 465 kts | 301° |
| 2026-05-08 15:05 | 10.34759 | 77.24951 | 31862 ft | 465 kts | 301° |
| 2026-05-08 15:06 | 10.38167 | 77.19373 | 31861 ft | 465 kts | 301° |
| 2026-05-08 15:06 | 10.41582 | 77.13786 | 31862 ft | 466 kts | 302° |
| 2026-05-08 15:07 | 10.45015 | 77.08170 | 31862 ft | 466 kts | 302° |
| 2026-05-08 15:07 | 10.48434 | 77.02575 | 31863 ft | 466 kts | 302° |
| 2026-05-08 15:08 | 10.51288 | 76.97902 | 31862 ft | 466 kts | 302° |
| 2026-05-08 15:08 | 10.55283 | 76.91357 | 31857 ft | 466 kts | 302° |
| 2026-05-08 15:09 | 10.58681 | 76.85788 | 31852 ft | 466 kts | 302° |
| 2026-05-08 15:09 | 10.62101 | 76.80179 | 31846 ft | 466 kts | 302° |
| 2026-05-08 15:10 | 10.65517 | 76.74574 | 31840 ft | 465 kts | 302° |
| 2026-05-08 15:10 | 10.68922 | 76.68986 | 31837 ft | 466 kts | 302° |
| 2026-05-08 15:11 | 10.71787 | 76.64281 | 31836 ft | 466 kts | 302° |
| 2026-05-08 15:11 | 10.75752 | 76.57764 | 31837 ft | 465 kts | 302° |
| 2026-05-08 15:12 | 10.79185 | 76.52120 | 31840 ft | 465 kts | 302° |
| 2026-05-08 15:12 | 10.82592 | 76.46518 | 31845 ft | 467 kts | 301° |
| 2026-05-08 15:13 | 10.85994 | 76.40916 | 31851 ft | 466 kts | 301° |
| 2026-05-08 15:13 | 10.89402 | 76.35305 | 31856 ft | 466 kts | 301° |
| 2026-05-08 15:14 | 10.92239 | 76.30613 | 31860 ft | 466 kts | 301° |
| 2026-05-08 15:14 | 10.96210 | 76.24043 | 31862 ft | 466 kts | 301° |
| 2026-05-08 15:15 | 10.99614 | 76.18426 | 31863 ft | 466 kts | 301° |
| 2026-05-08 15:15 | 11.03032 | 76.12785 | 31863 ft | 466 kts | 301° |
| 2026-05-08 15:16 | 11.06439 | 76.07163 | 31863 ft | 466 kts | 301° |
| 2026-05-08 15:16 | 11.09834 | 76.01560 | 31861 ft | 466 kts | 301° |
| 2026-05-08 15:17 | 11.13288 | 75.95937 | 31853 ft | 466 kts | 303° |
| 2026-05-08 15:17 | 11.17002 | 75.90546 | 31844 ft | 466 kts | 305° |
| 2026-05-08 15:18 | 11.20788 | 75.85155 | 31833 ft | 465 kts | 305° |
| 2026-05-08 15:18 | 11.24501 | 75.79804 | 31822 ft | 465 kts | 304° |
| 2026-05-08 15:19 | 11.28146 | 75.74371 | 31814 ft | 464 kts | 304° |
| 2026-05-08 15:19 | 11.31794 | 75.68913 | 31811 ft | 464 kts | 304° |
| 2026-05-08 15:20 | 11.35426 | 75.63487 | 31810 ft | 464 kts | 304° |
| 2026-05-08 15:20 | 11.39072 | 75.58040 | 31810 ft | 464 kts | 304° |
| 2026-05-08 15:21 | 11.42703 | 75.52614 | 31812 ft | 464 kts | 304° |
| 2026-05-08 15:21 | 11.46372 | 75.47128 | 31817 ft | 464 kts | 304° |
| 2026-05-08 15:22 | 11.50007 | 75.41693 | 31822 ft | 464 kts | 304° |
| 2026-05-08 15:22 | 11.53647 | 75.36244 | 31828 ft | 464 kts | 304° |
| 2026-05-08 15:23 | 11.57266 | 75.30809 | 31832 ft | 464 kts | 303° |
| 2026-05-08 15:23 | 11.60904 | 75.25334 | 31834 ft | 464 kts | 303° |
| 2026-05-08 15:24 | 11.64527 | 75.19894 | 31834 ft | 464 kts | 303° |
| 2026-05-08 15:24 | 11.68159 | 75.14444 | 31834 ft | 464 kts | 304° |
| 2026-05-08 15:25 | 11.71813 | 75.08959 | 31835 ft | 464 kts | 304° |
| 2026-05-08 15:25 | 11.75433 | 75.03522 | 31833 ft | 463 kts | 304° |
| 2026-05-08 15:26 | 11.79061 | 74.98074 | 31829 ft | 463 kts | 304° |
| 2026-05-08 15:26 | 11.82684 | 74.92628 | 31823 ft | 464 kts | 304° |
| 2026-05-08 15:27 | 11.86303 | 74.87187 | 31818 ft | 464 kts | 304° |
| 2026-05-08 15:27 | 11.89950 | 74.81699 | 31816 ft | 464 kts | 303° |
| 2026-05-08 15:28 | 11.93567 | 74.76254 | 31817 ft | 463 kts | 303° |
| 2026-05-08 15:28 | 11.97178 | 74.70814 | 31823 ft | 463 kts | 304° |
| 2026-05-08 15:29 | 12.00810 | 74.65340 | 31828 ft | 462 kts | 303° |
| 2026-05-08 15:29 | 12.04404 | 74.59923 | 31832 ft | 461 kts | 303° |
| 2026-05-08 15:30 | 12.07998 | 74.54498 | 31834 ft | 460 kts | 303° |
| 2026-05-08 15:30 | 12.11564 | 74.49126 | 31834 ft | 460 kts | 304° |
| 2026-05-08 15:31 | 12.15175 | 74.43713 | 31834 ft | 460 kts | 303° |
| 2026-05-08 15:31 | 12.18778 | 74.38280 | 31835 ft | 460 kts | 303° |
| 2026-05-08 15:32 | 12.22346 | 74.32871 | 31834 ft | 460 kts | 303° |
| 2026-05-08 15:32 | 12.25928 | 74.27422 | 31834 ft | 460 kts | 303° |
| 2026-05-08 15:33 | 12.29455 | 74.21931 | 31834 ft | 460 kts | 302° |
| 2026-05-08 15:33 | 12.32921 | 74.16445 | 31834 ft | 460 kts | 302° |
| 2026-05-08 15:34 | 12.36397 | 74.10946 | 31834 ft | 460 kts | 302° |
| 2026-05-08 15:34 | 12.39897 | 74.05415 | 31831 ft | 460 kts | 302° |
| 2026-05-08 15:35 | 12.43366 | 73.99932 | 31827 ft | 460 kts | 302° |
| 2026-05-08 15:35 | 12.46860 | 73.94405 | 31821 ft | 460 kts | 302° |
| 2026-05-08 15:36 | 12.49752 | 73.89830 | 31816 ft | 460 kts | 302° |
| 2026-05-08 15:36 | 12.53794 | 73.83431 | 31811 ft | 460 kts | 302° |
| 2026-05-08 15:37 | 12.57274 | 73.77918 | 31810 ft | 460 kts | 302° |
| 2026-05-08 15:37 | 12.60753 | 73.72405 | 31809 ft | 460 kts | 302° |
| 2026-05-08 15:38 | 12.64252 | 73.66853 | 31810 ft | 460 kts | 302° |
| 2026-05-08 15:38 | 12.67707 | 73.61369 | 31809 ft | 460 kts | 302° |
| 2026-05-08 15:39 | 12.71188 | 73.55841 | 31810 ft | 460 kts | 302° |
| 2026-05-08 15:39 | 12.74668 | 73.50311 | 31809 ft | 460 kts | 302° |
| 2026-05-08 15:40 | 12.78119 | 73.44820 | 31809 ft | 460 kts | 303° |
| 2026-05-08 15:40 | 12.81584 | 73.39317 | 31809 ft | 460 kts | 303° |
| 2026-05-08 15:41 | 12.85060 | 73.33787 | 31809 ft | 460 kts | 302° |
| 2026-05-08 15:41 | 12.88543 | 73.28212 | 31810 ft | 460 kts | 302° |
| 2026-05-08 15:42 | 12.91974 | 73.22726 | 31810 ft | 459 kts | 302° |
| 2026-05-08 15:42 | 12.95449 | 73.17180 | 31809 ft | 459 kts | 302° |
| 2026-05-08 15:43 | 12.98913 | 73.11650 | 31810 ft | 459 kts | 302° |
| 2026-05-08 15:43 | 13.02376 | 73.06121 | 31809 ft | 459 kts | 302° |
| 2026-05-08 15:44 | 13.05822 | 73.00616 | 31809 ft | 459 kts | 302° |
| 2026-05-08 15:44 | 13.09265 | 72.95111 | 31809 ft | 459 kts | 302° |
| 2026-05-08 15:45 | 13.12752 | 72.89564 | 31809 ft | 459 kts | 303° |
| 2026-05-08 15:45 | 13.16214 | 72.84062 | 31808 ft | 459 kts | 302° |
| 2026-05-08 15:46 | 13.19675 | 72.78535 | 31803 ft | 459 kts | 302° |
| 2026-05-08 15:46 | 13.23109 | 72.73035 | 31798 ft | 459 kts | 302° |
| 2026-05-08 15:47 | 13.25996 | 72.68407 | 31793 ft | 459 kts | 302° |
| 2026-05-08 15:47 | 13.30004 | 72.61976 | 31787 ft | 458 kts | 302° |
| 2026-05-08 15:48 | 13.35154 | 72.53705 | 31782 ft | 458 kts | 302° |
| 2026-05-08 15:49 | 13.38592 | 72.48180 | 31781 ft | 458 kts | 302° |
| 2026-05-08 15:49 | 13.42012 | 72.42678 | 31781 ft | 458 kts | 302° |
| 2026-05-08 15:50 | 13.45432 | 72.37175 | 31781 ft | 457 kts | 302° |
| 2026-05-08 15:50 | 13.48864 | 72.31633 | 31781 ft | 457 kts | 302° |
| 2026-05-08 15:51 | 13.52279 | 72.26103 | 31781 ft | 457 kts | 302° |
| 2026-05-08 15:51 | 13.55689 | 72.20596 | 31781 ft | 457 kts | 302° |
| 2026-05-08 15:52 | 13.59106 | 72.15081 | 31781 ft | 457 kts | 302° |
| 2026-05-08 15:52 | 13.62520 | 72.09568 | 31781 ft | 456 kts | 302° |
| 2026-05-08 15:53 | 13.65914 | 72.04085 | 31781 ft | 456 kts | 302° |
| 2026-05-08 15:53 | 13.69346 | 71.98556 | 31781 ft | 456 kts | 303° |
| 2026-05-08 15:54 | 13.72835 | 71.93093 | 31781 ft | 456 kts | 303° |
| 2026-05-08 15:54 | 13.76320 | 71.87653 | 31781 ft | 456 kts | 303° |
| 2026-05-08 15:55 | 13.79824 | 71.82169 | 31781 ft | 456 kts | 303° |
| 2026-05-08 15:55 | 13.85035 | 71.73995 | 31781 ft | 456 kts | 303° |
| 2026-05-08 15:56 | 13.87926 | 71.69456 | 31781 ft | 456 kts | 303° |
| 2026-05-08 15:56 | 13.91421 | 71.63966 | 31781 ft | 456 kts | 303° |
| 2026-05-08 15:57 | 13.94890 | 71.58513 | 31781 ft | 456 kts | 303° |
| 2026-05-08 15:57 | 13.98367 | 71.53045 | 31781 ft | 456 kts | 303° |
| 2026-05-08 15:58 | 14.01838 | 71.47579 | 31781 ft | 456 kts | 303° |
| 2026-05-08 15:58 | 14.05317 | 71.42100 | 31781 ft | 456 kts | 303° |
| 2026-05-08 15:59 | 14.09371 | 71.35710 | 31781 ft | 455 kts | 303° |
| 2026-05-08 15:59 | 14.12259 | 71.31162 | 31781 ft | 455 kts | 303° |
| 2026-05-08 16:00 | 14.15738 | 71.25687 | 31781 ft | 455 kts | 303° |
| 2026-05-08 16:00 | 14.19212 | 71.20206 | 31781 ft | 455 kts | 303° |
| 2026-05-08 16:01 | 14.22663 | 71.14753 | 31781 ft | 455 kts | 303° |
| 2026-05-08 16:01 | 14.26125 | 71.09276 | 31781 ft | 455 kts | 303° |
| 2026-05-08 16:02 | 14.29592 | 71.03786 | 31783 ft | 455 kts | 303° |
| 2026-05-08 16:02 | 14.32494 | 70.99188 | 31787 ft | 455 kts | 303° |
| 2026-05-08 16:03 | 14.36523 | 70.92828 | 31791 ft | 455 kts | 303° |
| 2026-05-08 16:03 | 14.40055 | 70.87351 | 31791 ft | 455 kts | 303° |
| 2026-05-08 16:04 | 14.43556 | 70.81917 | 31790 ft | 455 kts | 303° |
| 2026-05-08 16:04 | 14.47066 | 70.76457 | 31786 ft | 455 kts | 303° |
| 2026-05-08 16:05 | 14.51151 | 70.70093 | 31782 ft | 455 kts | 303° |